sensor_id;sensor_type;location;lat;lon;timestamp;pressure;altitude;pressure_sealevel;temperature;humidity
61805;BME280;47725;47.912;7.356;2023-11-21T00:03:28;98769.45;;;14.45;55.01
61805;BME280;47725;47.912;7.356;2023-11-21T00:07:28;98764.92;;;14.41;55.20
61805;BME280;47725;47.912;7.356;2023-11-21T00:11:28;98760.22;;;14.39;55.11
61805;BME280;47725;47.912;7.356;2023-11-21T00:15:28;98754.49;;;14.36;55.19
61805;BME280;47725;47.912;7.356;2023-11-21T00:19:28;98751.14;;;14.35;54.97
61805;BME280;47725;47.912;7.356;2023-11-21T00:23:28;98748.33;;;14.33;55.26
61805;BME280;47725;47.912;7.356;2023-11-21T00:27:28;98746.51;;;14.34;54.99
61805;BME280;47725;47.912;7.356;2023-11-21T00:31:28;98744.43;;;14.35;54.81
61805;BME280;47725;47.912;7.356;2023-11-21T00:35:28;98744.31;;;14.34;54.93
61805;BME280;47725;47.912;7.356;2023-11-21T00:39:28;98745.68;;;14.34;54.73
61805;BME280;47725;47.912;7.356;2023-11-21T00:43:28;98745.20;;;14.33;54.74
61805;BME280;47725;47.912;7.356;2023-11-21T00:47:28;98744.45;;;14.30;54.63
61805;BME280;47725;47.912;7.356;2023-11-21T00:51:28;98744.16;;;14.27;54.69
61805;BME280;47725;47.912;7.356;2023-11-21T00:55:28;98741.50;;;14.24;54.75
61805;BME280;47725;47.912;7.356;2023-11-21T00:59:28;98739.09;;;14.22;54.66
61805;BME280;47725;47.912;7.356;2023-11-21T01:03:28;98735.89;;;14.18;54.73
61805;BME280;47725;47.912;7.356;2023-11-21T01:07:28;98733.58;;;14.13;55.19
61805;BME280;47725;47.912;7.356;2023-11-21T01:11:28;98734.73;;;14.07;55.29
61805;BME280;47725;47.912;7.356;2023-11-21T01:15:28;98733.24;;;14.00;55.58
61805;BME280;47725;47.912;7.356;2023-11-21T01:19:28;98729.58;;;13.95;55.47
61805;BME280;47725;47.912;7.356;2023-11-21T01:23:28;98726.37;;;13.89;55.75
61805;BME280;47725;47.912;7.356;2023-11-21T01:27:28;98725.03;;;13.83;56.02
61805;BME280;47725;47.912;7.356;2023-11-21T01:31:28;98726.56;;;13.77;55.82
61805;BME280;47725;47.912;7.356;2023-11-21T01:35:28;98727.73;;;13.73;55.62
61805;BME280;47725;47.912;7.356;2023-11-21T01:39:28;98727.58;;;13.71;55.68
61805;BME280;47725;47.912;7.356;2023-11-21T01:43:29;98728.54;;;13.68;55.67
61805;BME280;47725;47.912;7.356;2023-11-21T01:47:28;98731.45;;;13.66;55.70
61805;BME280;47725;47.912;7.356;2023-11-21T01:51:28;98731.48;;;13.64;55.74
61805;BME280;47725;47.912;7.356;2023-11-21T01:55:28;98732.59;;;13.62;55.79
61805;BME280;47725;47.912;7.356;2023-11-21T01:59:29;98732.03;;;13.61;55.82
61805;BME280;47725;47.912;7.356;2023-11-21T02:03:28;98731.69;;;13.62;55.70
61805;BME280;47725;47.912;7.356;2023-11-21T02:07:28;98733.91;;;13.61;55.69
61805;BME280;47725;47.912;7.356;2023-11-21T02:11:28;98736.16;;;13.59;55.93
61805;BME280;47725;47.912;7.356;2023-11-21T02:15:28;98736.29;;;13.57;56.10
61805;BME280;47725;47.912;7.356;2023-11-21T02:19:27;98734.97;;;13.56;55.99
61805;BME280;47725;47.912;7.356;2023-11-21T02:23:27;98731.94;;;13.56;55.96
61805;BME280;47725;47.912;7.356;2023-11-21T02:27:27;98732.14;;;13.54;56.38
61805;BME280;47725;47.912;7.356;2023-11-21T02:31:27;98731.96;;;13.53;56.40
61805;BME280;47725;47.912;7.356;2023-11-21T02:35:27;98731.73;;;13.52;56.25
61805;BME280;47725;47.912;7.356;2023-11-21T02:39:27;98730.81;;;13.53;56.23
61805;BME280;47725;47.912;7.356;2023-11-21T02:43:27;98730.49;;;13.53;56.23
61805;BME280;47725;47.912;7.356;2023-11-21T02:47:27;98729.46;;;13.52;56.23
61805;BME280;47725;47.912;7.356;2023-11-21T02:51:27;98725.37;;;13.52;56.05
61805;BME280;47725;47.912;7.356;2023-11-21T02:55:27;98720.59;;;13.51;56.19
61805;BME280;47725;47.912;7.356;2023-11-21T02:59:27;98716.05;;;13.52;55.87
61805;BME280;47725;47.912;7.356;2023-11-21T03:03:27;98711.88;;;13.51;55.88
61805;BME280;47725;47.912;7.356;2023-11-21T03:07:27;98710.89;;;13.51;55.82
61805;BME280;47725;47.912;7.356;2023-11-21T03:11:27;98709.54;;;13.52;55.73
61805;BME280;47725;47.912;7.356;2023-11-21T03:15:27;98708.25;;;13.53;55.55
61805;BME280;47725;47.912;7.356;2023-11-21T03:19:27;98708.54;;;13.53;55.81
61805;BME280;47725;47.912;7.356;2023-11-21T03:23:27;98710.25;;;13.53;55.74
61805;BME280;47725;47.912;7.356;2023-11-21T03:27:27;98713.14;;;13.53;55.56
61805;BME280;47725;47.912;7.356;2023-11-21T03:31:27;98715.11;;;13.53;55.62
61805;BME280;47725;47.912;7.356;2023-11-21T03:35:27;98717.14;;;13.54;55.37
61805;BME280;47725;47.912;7.356;2023-11-21T03:39:27;98719.72;;;13.56;55.18
61805;BME280;47725;47.912;7.356;2023-11-21T03:43:27;98722.78;;;13.59;55.04
61805;BME280;47725;47.912;7.356;2023-11-21T03:47:27;98723.58;;;13.60;55.18
61805;BME280;47725;47.912;7.356;2023-11-21T03:51:27;98724.97;;;13.59;55.37
61805;BME280;47725;47.912;7.356;2023-11-21T03:55:27;98726.84;;;13.58;55.56
61805;BME280;47725;47.912;7.356;2023-11-21T03:59:27;98728.41;;;13.58;55.47
61805;BME280;47725;47.912;7.356;2023-11-21T04:03:27;98728.48;;;13.60;55.35
61805;BME280;47725;47.912;7.356;2023-11-21T04:07:27;98727.64;;;13.61;55.46
61805;BME280;47725;47.912;7.356;2023-11-21T04:11:27;98727.86;;;13.62;55.44
61805;BME280;47725;47.912;7.356;2023-11-21T04:15:27;98730.52;;;13.63;55.47
61805;BME280;47725;47.912;7.356;2023-11-21T04:19:27;98735.52;;;13.65;55.39
61805;BME280;47725;47.912;7.356;2023-11-21T04:23:28;98742.56;;;13.67;55.37
61805;BME280;47725;47.912;7.356;2023-11-21T04:27:27;98751.47;;;13.68;55.46
61805;BME280;47725;47.912;7.356;2023-11-21T04:31:27;98758.73;;;13.67;55.59
61805;BME280;47725;47.912;7.356;2023-11-21T04:35:27;98766.05;;;13.66;55.64
61805;BME280;47725;47.912;7.356;2023-11-21T04:39:27;98772.28;;;13.67;55.57
61805;BME280;47725;47.912;7.356;2023-11-21T04:43:28;98777.09;;;13.68;55.60
61805;BME280;47725;47.912;7.356;2023-11-21T04:47:27;98781.66;;;13.67;55.72
61805;BME280;47725;47.912;7.356;2023-11-21T04:51:27;98785.58;;;13.66;55.68
61805;BME280;47725;47.912;7.356;2023-11-21T04:55:27;98789.47;;;13.64;55.86
61805;BME280;47725;47.912;7.356;2023-11-21T04:59:27;98792.36;;;13.62;55.90
61805;BME280;47725;47.912;7.356;2023-11-21T05:03:27;98795.12;;;13.61;55.78
61805;BME280;47725;47.912;7.356;2023-11-21T05:07:27;98798.11;;;13.58;56.01
61805;BME280;47725;47.912;7.356;2023-11-21T05:11:27;98800.30;;;13.54;56.11
61805;BME280;47725;47.912;7.356;2023-11-21T05:15:27;98803.27;;;13.51;55.97
61805;BME280;47725;47.912;7.356;2023-11-21T05:19:27;98807.24;;;13.50;55.91
61805;BME280;47725;47.912;7.356;2023-11-21T05:23:27;98810.42;;;13.49;55.86
61805;BME280;47725;47.912;7.356;2023-11-21T05:27:27;98812.97;;;13.46;56.13
61805;BME280;47725;47.912;7.356;2023-11-21T05:31:27;98815.04;;;13.43;56.25
61805;BME280;47725;47.912;7.356;2023-11-21T05:35:27;98817.07;;;13.41;56.24
61805;BME280;47725;47.912;7.356;2023-11-21T05:39:27;98819.98;;;13.40;56.29
61805;BME280;47725;47.912;7.356;2023-11-21T05:43:27;98822.57;;;13.39;56.17
61805;BME280;47725;47.912;7.356;2023-11-21T05:47:27;98825.27;;;13.38;56.14
61805;BME280;47725;47.912;7.356;2023-11-21T05:51:27;98828.85;;;13.39;55.95
61805;BME280;47725;47.912;7.356;2023-11-21T05:55:27;98831.59;;;13.38;56.10
61805;BME280;47725;47.912;7.356;2023-11-21T05:59:27;98834.54;;;13.38;56.11
61805;BME280;47725;47.912;7.356;2023-11-21T06:03:27;98836.96;;;13.37;55.85
61805;BME280;47725;47.912;7.356;2023-11-21T06:07:27;98840.05;;;13.36;56.02
61805;BME280;47725;47.912;7.356;2023-11-21T06:11:27;98842.82;;;13.36;55.96
61805;BME280;47725;47.912;7.356;2023-11-21T06:15:27;98845.42;;;13.35;56.07
61805;BME280;47725;47.912;7.356;2023-11-21T06:19:27;98847.91;;;13.34;56.08
61805;BME280;47725;47.912;7.356;2023-11-21T06:23:27;98850.41;;;13.35;55.82
61805;BME280;47725;47.912;7.356;2023-11-21T06:27:27;98853.42;;;13.36;55.89
61805;BME280;47725;47.912;7.356;2023-11-21T06:31:27;98856.98;;;13.38;55.56
61805;BME280;47725;47.912;7.356;2023-11-21T06:35:27;98859.78;;;13.39;55.56
61805;BME280;47725;47.912;7.356;2023-11-21T06:39:27;98862.09;;;13.40;55.63
61805;BME280;47725;47.912;7.356;2023-11-21T06:43:27;98864.12;;;13.39;55.58
61805;BME280;47725;47.912;7.356;2023-11-21T06:47:27;98866.88;;;13.38;55.62
61805;BME280;47725;47.912;7.356;2023-11-21T06:51:27;98868.94;;;13.40;55.14
61805;BME280;47725;47.912;7.356;2023-11-21T06:55:27;98871.28;;;13.40;55.10
61805;BME280;47725;47.912;7.356;2023-11-21T06:59:30;98875.02;;;13.39;54.99
61805;BME280;47725;47.912;7.356;2023-11-21T07:03:27;98876.46;;;13.36;55.09
61805;BME280;47725;47.912;7.356;2023-11-21T07:07:27;98879.05;;;13.33;55.38
61805;BME280;47725;47.912;7.356;2023-11-21T07:11:27;98880.77;;;13.29;55.53
61805;BME280;47725;47.912;7.356;2023-11-21T07:15:27;98882.59;;;13.26;55.57
61805;BME280;47725;47.912;7.356;2023-11-21T07:19:27;98884.83;;;13.23;55.58
61805;BME280;47725;47.912;7.356;2023-11-21T07:23:27;98885.38;;;13.20;55.69
61805;BME280;47725;47.912;7.356;2023-11-21T07:27:27;98887.74;;;13.19;55.69
61805;BME280;47725;47.912;7.356;2023-11-21T07:31:27;98889.50;;;13.20;55.40
61805;BME280;47725;47.912;7.356;2023-11-21T07:35:27;98891.46;;;13.22;55.48
61805;BME280;47725;47.912;7.356;2023-11-21T07:39:27;98892.69;;;13.25;55.28
61805;BME280;47725;47.912;7.356;2023-11-21T07:43:27;98893.73;;;13.28;55.43
61805;BME280;47725;47.912;7.356;2023-11-21T07:47:27;98895.81;;;13.31;55.71
61805;BME280;47725;47.912;7.356;2023-11-21T07:51:27;98898.96;;;13.35;55.45
61805;BME280;47725;47.912;7.356;2023-11-21T07:55:27;98901.48;;;13.39;55.55
61805;BME280;47725;47.912;7.356;2023-11-21T07:59:27;98903.45;;;13.41;55.70
61805;BME280;47725;47.912;7.356;2023-11-21T08:03:27;98905.56;;;13.45;55.67
61805;BME280;47725;47.912;7.356;2023-11-21T08:07:27;98907.74;;;13.48;55.70
61805;BME280;47725;47.912;7.356;2023-11-21T08:11:27;98910.57;;;13.50;55.85
61805;BME280;47725;47.912;7.356;2023-11-21T08:15:27;98914.37;;;13.53;55.67
61805;BME280;47725;47.912;7.356;2023-11-21T08:19:27;98916.71;;;13.56;55.68
61805;BME280;47725;47.912;7.356;2023-11-21T08:23:27;98918.80;;;13.59;55.70
61805;BME280;47725;47.912;7.356;2023-11-21T08:27:27;98921.26;;;13.63;55.64
61805;BME280;47725;47.912;7.356;2023-11-21T08:31:27;98923.99;;;13.66;55.61
61805;BME280;47725;47.912;7.356;2023-11-21T08:35:27;98928.06;;;13.70;55.69
61805;BME280;47725;47.912;7.356;2023-11-21T08:39:27;98932.64;;;13.73;55.54
61805;BME280;47725;47.912;7.356;2023-11-21T08:43:27;98936.11;;;13.77;55.58
61805;BME280;47725;47.912;7.356;2023-11-21T08:47:27;98937.04;;;13.81;55.50
61805;BME280;47725;47.912;7.356;2023-11-21T08:51:27;98939.56;;;13.88;55.28
61805;BME280;47725;47.912;7.356;2023-11-21T08:55:27;98941.78;;;13.95;55.12
61805;BME280;47725;47.912;7.356;2023-11-21T08:59:27;98943.60;;;14.02;55.04
61805;BME280;47725;47.912;7.356;2023-11-21T09:03:27;98944.89;;;14.08;55.12
61805;BME280;47725;47.912;7.356;2023-11-21T09:07:27;98947.50;;;14.12;55.20
61805;BME280;47725;47.912;7.356;2023-11-21T09:11:27;98950.17;;;14.18;55.05
61805;BME280;47725;47.912;7.356;2023-11-21T09:15:27;98952.78;;;14.24;54.92
61805;BME280;47725;47.912;7.356;2023-11-21T09:19:27;98956.32;;;14.30;54.83
61805;BME280;47725;47.912;7.356;2023-11-21T09:23:27;98959.11;;;14.36;54.62
61805;BME280;47725;47.912;7.356;2023-11-21T09:27:27;98961.24;;;14.42;54.56
61805;BME280;47725;47.912;7.356;2023-11-21T09:31:27;98964.09;;;14.47;54.47
61805;BME280;47725;47.912;7.356;2023-11-21T09:35:27;98966.31;;;14.52;54.34
61805;BME280;47725;47.912;7.356;2023-11-21T09:39:27;98967.61;;;14.56;54.02
61805;BME280;47725;47.912;7.356;2023-11-21T09:43:27;98969.97;;;14.62;53.95
61805;BME280;47725;47.912;7.356;2023-11-21T09:47:27;98973.58;;;14.67;53.97
61805;BME280;47725;47.912;7.356;2023-11-21T09:51:27;98977.39;;;14.74;53.77
61805;BME280;47725;47.912;7.356;2023-11-21T09:55:27;98981.02;;;14.81;53.68
61805;BME280;47725;47.912;7.356;2023-11-21T09:59:30;98984.24;;;14.90;53.60
61805;BME280;47725;47.912;7.356;2023-11-21T10:03:27;98986.52;;;15.00;53.48
61805;BME280;47725;47.912;7.356;2023-11-21T10:07:27;98989.26;;;15.11;53.24
61805;BME280;47725;47.912;7.356;2023-11-21T10:11:27;98991.80;;;15.23;52.75
61805;BME280;47725;47.912;7.356;2023-11-21T10:15:27;98993.65;;;15.31;51.97
61805;BME280;47725;47.912;7.356;2023-11-21T10:19:27;98994.50;;;15.36;52.73
61805;BME280;47725;47.912;7.356;2023-11-21T10:23:27;98996.08;;;15.43;52.79
61805;BME280;47725;47.912;7.356;2023-11-21T10:27:27;98996.73;;;15.50;52.64
61805;BME280;47725;47.912;7.356;2023-11-21T10:31:27;98997.82;;;15.57;52.60
61805;BME280;47725;47.912;7.356;2023-11-21T10:35:38;99000.33;;;15.63;52.60
61805;BME280;47725;47.912;7.356;2023-11-21T10:39:27;99001.49;;;15.67;52.33
61805;BME280;47725;47.912;7.356;2023-11-21T10:43:27;99001.56;;;15.69;52.83
61805;BME280;47725;47.912;7.356;2023-11-21T10:47:27;99000.76;;;15.72;52.83
61805;BME280;47725;47.912;7.356;2023-11-21T10:51:27;99000.87;;;15.75;52.10
61805;BME280;47725;47.912;7.356;2023-11-21T10:55:27;99000.80;;;15.76;52.40
61805;BME280;47725;47.912;7.356;2023-11-21T10:59:30;99002.85;;;15.79;52.27
61805;BME280;47725;47.912;7.356;2023-11-21T11:03:27;99005.24;;;15.82;52.12
61805;BME280;47725;47.912;7.356;2023-11-21T11:07:27;99007.64;;;15.86;52.13
61805;BME280;47725;47.912;7.356;2023-11-21T11:11:27;99009.12;;;15.91;52.04
61805;BME280;47725;47.912;7.356;2023-11-21T11:15:27;99010.21;;;15.95;51.73
61805;BME280;47725;47.912;7.356;2023-11-21T11:19:27;99010.57;;;15.98;51.84
61805;BME280;47725;47.912;7.356;2023-11-21T11:23:32;99011.40;;;16.00;51.76
61805;BME280;47725;47.912;7.356;2023-11-21T11:39:27;99018.89;;;16.10;51.48
61805;BME280;47725;47.912;7.356;2023-11-21T11:43:27;99020.03;;;16.11;51.31
61805;BME280;47725;47.912;7.356;2023-11-21T11:47:28;99021.35;;;16.12;51.46
61805;BME280;47725;47.912;7.356;2023-11-21T11:51:27;99021.62;;;16.12;51.42
61805;BME280;47725;47.912;7.356;2023-11-21T11:55:27;99022.02;;;16.13;51.18
61805;BME280;47725;47.912;7.356;2023-11-21T11:59:27;99022.69;;;16.13;51.20
61805;BME280;47725;47.912;7.356;2023-11-21T12:03:27;99023.58;;;16.14;51.29
61805;BME280;47725;47.912;7.356;2023-11-21T12:07:38;99022.39;;;16.15;51.22
61805;BME280;47725;47.912;7.356;2023-11-21T12:11:33;99021.50;;;16.17;51.39
61805;BME280;47725;47.912;7.356;2023-11-21T12:15:27;99020.20;;;16.18;51.15
61805;BME280;47725;47.912;7.356;2023-11-21T12:19:27;99019.96;;;16.18;51.32
61805;BME280;47725;47.912;7.356;2023-11-21T12:23:27;99021.01;;;16.18;51.45
61805;BME280;47725;47.912;7.356;2023-11-21T12:27:27;99022.74;;;16.17;51.66
61805;BME280;47725;47.912;7.356;2023-11-21T12:31:27;99024.34;;;16.16;51.72
61805;BME280;47725;47.912;7.356;2023-11-21T12:35:27;99026.58;;;16.15;51.74
61805;BME280;47725;47.912;7.356;2023-11-21T12:39:27;99027.94;;;16.15;51.89
61805;BME280;47725;47.912;7.356;2023-11-21T12:43:27;99028.52;;;16.15;51.89
61805;BME280;47725;47.912;7.356;2023-11-21T12:47:27;99029.37;;;16.15;51.74
61805;BME280;47725;47.912;7.356;2023-11-21T12:51:27;99031.22;;;16.16;51.76
61805;BME280;47725;47.912;7.356;2023-11-21T12:55:29;99033.14;;;16.17;51.59
61805;BME280;47725;47.912;7.356;2023-11-21T12:59:27;99034.80;;;16.18;51.64
61805;BME280;47725;47.912;7.356;2023-11-21T13:03:27;99036.53;;;16.21;51.47
61805;BME280;47725;47.912;7.356;2023-11-21T13:07:27;99038.83;;;16.23;51.40
61805;BME280;47725;47.912;7.356;2023-11-21T13:11:27;99041.56;;;16.24;51.19
61805;BME280;47725;47.912;7.356;2023-11-21T13:15:27;99044.50;;;16.24;51.03
61805;BME280;47725;47.912;7.356;2023-11-21T13:19:27;99047.05;;;16.23;50.99
61805;BME280;47725;47.912;7.356;2023-11-21T13:23:27;99049.17;;;16.21;51.13
61805;BME280;47725;47.912;7.356;2023-11-21T13:27:27;99051.62;;;16.20;51.05
61805;BME280;47725;47.912;7.356;2023-11-21T13:31:27;99053.66;;;16.18;51.14
61805;BME280;47725;47.912;7.356;2023-11-21T13:35:30;99056.56;;;16.17;51.08
61805;BME280;47725;47.912;7.356;2023-11-21T13:39:27;99058.62;;;16.16;51.25
61805;BME280;47725;47.912;7.356;2023-11-21T13:43:27;99061.50;;;16.17;51.39
61805;BME280;47725;47.912;7.356;2023-11-21T13:47:27;99063.79;;;16.18;51.08
61805;BME280;47725;47.912;7.356;2023-11-21T13:51:27;99064.95;;;16.18;51.15
61805;BME280;47725;47.912;7.356;2023-11-21T13:55:27;99065.67;;;16.18;51.25
61805;BME280;47725;47.912;7.356;2023-11-21T13:59:27;99066.58;;;16.18;51.22
61805;BME280;47725;47.912;7.356;2023-11-21T14:03:27;99068.05;;;16.19;51.14
61805;BME280;47725;47.912;7.356;2023-11-21T14:07:27;99068.54;;;16.19;51.27
61805;BME280;47725;47.912;7.356;2023-11-21T14:11:27;99070.34;;;16.19;51.20
61805;BME280;47725;47.912;7.356;2023-11-21T14:15:27;99074.45;;;16.18;51.15
61805;BME280;47725;47.912;7.356;2023-11-21T14:19:27;99079.42;;;16.17;51.12
61805;BME280;47725;47.912;7.356;2023-11-21T14:23:27;99083.94;;;16.17;51.03
61805;BME280;47725;47.912;7.356;2023-11-21T14:27:27;99086.49;;;16.18;50.96
61805;BME280;47725;47.912;7.356;2023-11-21T14:31:27;99090.19;;;16.17;50.78
61805;BME280;47725;47.912;7.356;2023-11-21T14:35:27;99092.70;;;16.15;50.94
61805;BME280;47725;47.912;7.356;2023-11-21T14:39:27;99097.13;;;16.15;50.85
61805;BME280;47725;47.912;7.356;2023-11-21T14:43:27;99101.37;;;16.15;50.59
61805;BME280;47725;47.912;7.356;2023-11-21T14:47:27;99105.52;;;16.13;50.90
61805;BME280;47725;47.912;7.356;2023-11-21T14:51:29;99109.59;;;16.10;50.73
61805;BME280;47725;47.912;7.356;2023-11-21T14:55:27;99114.73;;;16.07;50.57
61805;BME280;47725;47.912;7.356;2023-11-21T14:59:27;99120.20;;;16.03;50.62
61805;BME280;47725;47.912;7.356;2023-11-21T15:03:28;99126.19;;;15.98;50.56
61805;BME280;47725;47.912;7.356;2023-11-21T15:07:27;99131.53;;;15.93;50.54
61805;BME280;47725;47.912;7.356;2023-11-21T15:11:27;99136.80;;;15.89;50.69
61805;BME280;47725;47.912;7.356;2023-11-21T15:15:27;99140.52;;;15.84;50.67
61805;BME280;47725;47.912;7.356;2023-11-21T15:19:27;99144.73;;;15.80;50.85
61805;BME280;47725;47.912;7.356;2023-11-21T15:23:27;99147.88;;;15.76;50.75
61805;BME280;47725;47.912;7.356;2023-11-21T15:27:27;99152.00;;;15.71;51.00
61805;BME280;47725;47.912;7.356;2023-11-21T15:31:27;99156.22;;;15.67;50.88
61805;BME280;47725;47.912;7.356;2023-11-21T15:35:27;99159.72;;;15.64;50.94
61805;BME280;47725;47.912;7.356;2023-11-21T15:39:27;99162.11;;;15.62;50.91
61805;BME280;47725;47.912;7.356;2023-11-21T15:43:27;99164.36;;;15.59;50.86
61805;BME280;47725;47.912;7.356;2023-11-21T15:47:27;99167.81;;;15.54;50.91
61805;BME280;47725;47.912;7.356;2023-11-21T15:51:27;99170.71;;;15.50;50.89
61805;BME280;47725;47.912;7.356;2023-11-21T15:55:27;99171.78;;;15.46;50.88
61805;BME280;47725;47.912;7.356;2023-11-21T15:59:27;99175.45;;;15.43;50.97
61805;BME280;47725;47.912;7.356;2023-11-21T16:03:26;99178.11;;;15.40;50.98
61805;BME280;47725;47.912;7.356;2023-11-21T16:07:26;99179.99;;;15.37;50.96
61805;BME280;47725;47.912;7.356;2023-11-21T16:11:26;99184.22;;;15.35;50.88
61805;BME280;47725;47.912;7.356;2023-11-21T16:15:26;99189.32;;;15.31;50.89
61805;BME280;47725;47.912;7.356;2023-11-21T16:19:26;99194.45;;;15.28;50.94
61805;BME280;47725;47.912;7.356;2023-11-21T16:23:26;99198.64;;;15.25;50.93
61805;BME280;47725;47.912;7.356;2023-11-21T16:27:26;99202.97;;;15.23;50.88
61805;BME280;47725;47.912;7.356;2023-11-21T16:31:26;99207.19;;;15.21;50.89
61805;BME280;47725;47.912;7.356;2023-11-21T16:35:26;99211.24;;;15.19;50.94
61805;BME280;47725;47.912;7.356;2023-11-21T16:39:26;99215.95;;;15.18;50.83
61805;BME280;47725;47.912;7.356;2023-11-21T16:43:26;99222.45;;;15.16;51.00
61805;BME280;47725;47.912;7.356;2023-11-21T16:47:26;99229.22;;;15.14;51.02
61805;BME280;47725;47.912;7.356;2023-11-21T16:51:26;99235.42;;;15.13;50.98
61805;BME280;47725;47.912;7.356;2023-11-21T16:55:26;99240.63;;;15.11;51.11
61805;BME280;47725;47.912;7.356;2023-11-21T16:59:26;99246.08;;;15.10;51.25
61805;BME280;47725;47.912;7.356;2023-11-21T17:03:26;99251.93;;;15.08;51.33
61805;BME280;47725;47.912;7.356;2023-11-21T17:07:26;99259.51;;;15.06;51.46
61805;BME280;47725;47.912;7.356;2023-11-21T17:11:27;99266.14;;;15.05;51.56
61805;BME280;47725;47.912;7.356;2023-11-21T17:15:26;99272.80;;;15.04;51.54
61805;BME280;47725;47.912;7.356;2023-11-21T17:19:26;99279.43;;;15.02;51.60
61805;BME280;47725;47.912;7.356;2023-11-21T17:23:26;99285.89;;;15.01;51.81
61805;BME280;47725;47.912;7.356;2023-11-21T17:27:26;99292.39;;;15.00;52.20
61805;BME280;47725;47.912;7.356;2023-11-21T17:31:27;99297.89;;;14.97;52.33
61805;BME280;47725;47.912;7.356;2023-11-21T17:35:26;99303.32;;;14.95;52.54
61805;BME280;47725;47.912;7.356;2023-11-21T17:39:26;99309.69;;;14.93;52.38
61805;BME280;47725;47.912;7.356;2023-11-21T17:43:26;99314.48;;;14.92;52.48
61805;BME280;47725;47.912;7.356;2023-11-21T17:47:26;99319.26;;;14.91;52.36
61805;BME280;47725;47.912;7.356;2023-11-21T17:51:26;99323.44;;;14.89;52.58
61805;BME280;47725;47.912;7.356;2023-11-21T17:55:26;99328.05;;;14.87;52.81
61805;BME280;47725;47.912;7.356;2023-11-21T17:59:26;99332.34;;;14.84;52.99
61805;BME280;47725;47.912;7.356;2023-11-21T18:03:26;99335.94;;;14.82;52.96
61805;BME280;47725;47.912;7.356;2023-11-21T18:07:27;99340.56;;;14.80;52.97
61805;BME280;47725;47.912;7.356;2023-11-21T18:11:26;99345.19;;;14.79;53.11
61805;BME280;47725;47.912;7.356;2023-11-21T18:15:26;99350.73;;;14.77;53.26
61805;BME280;47725;47.912;7.356;2023-11-21T18:19:26;99355.69;;;14.76;53.30
61805;BME280;47725;47.912;7.356;2023-11-21T18:23:26;99358.87;;;14.75;53.41
61805;BME280;47725;47.912;7.356;2023-11-21T18:27:26;99361.57;;;14.74;53.37
61805;BME280;47725;47.912;7.356;2023-11-21T18:31:26;99364.39;;;14.73;53.44
61805;BME280;47725;47.912;7.356;2023-11-21T18:35:26;99366.86;;;14.72;53.55
61805;BME280;47725;47.912;7.356;2023-11-21T18:39:26;99369.58;;;14.71;53.41
61805;BME280;47725;47.912;7.356;2023-11-21T18:43:26;99372.77;;;14.70;53.56
61805;BME280;47725;47.912;7.356;2023-11-21T18:47:26;99375.85;;;14.69;53.63
61805;BME280;47725;47.912;7.356;2023-11-21T18:51:26;99377.62;;;14.68;53.60
61805;BME280;47725;47.912;7.356;2023-11-21T18:55:26;99380.26;;;14.66;53.64
61805;BME280;47725;47.912;7.356;2023-11-21T18:59:26;99383.28;;;14.64;53.59
61805;BME280;47725;47.912;7.356;2023-11-21T19:03:26;99386.81;;;14.62;53.47
61805;BME280;47725;47.912;7.356;2023-11-21T19:07:26;99391.50;;;14.60;53.45
61805;BME280;47725;47.912;7.356;2023-11-21T19:11:26;99395.45;;;14.59;53.36
61805;BME280;47725;47.912;7.356;2023-11-21T19:15:26;99399.36;;;14.57;53.27
61805;BME280;47725;47.912;7.356;2023-11-21T19:19:26;99401.54;;;14.54;53.22
61805;BME280;47725;47.912;7.356;2023-11-21T19:23:26;99405.16;;;14.51;53.20
61805;BME280;47725;47.912;7.356;2023-11-21T19:27:26;99408.80;;;14.47;53.13
61805;BME280;47725;47.912;7.356;2023-11-21T19:31:26;99411.74;;;14.44;53.03
61805;BME280;47725;47.912;7.356;2023-11-21T19:35:26;99414.53;;;14.42;52.95
61805;BME280;47725;47.912;7.356;2023-11-21T19:39:26;99417.30;;;14.40;52.89
61805;BME280;47725;47.912;7.356;2023-11-21T19:43:26;99421.66;;;14.39;52.78
61805;BME280;47725;47.912;7.356;2023-11-21T19:47:26;99426.03;;;14.36;52.82
61805;BME280;47725;47.912;7.356;2023-11-21T19:51:26;99430.78;;;14.34;52.80
61805;BME280;47725;47.912;7.356;2023-11-21T19:55:26;99434.72;;;14.31;52.78
61805;BME280;47725;47.912;7.356;2023-11-21T19:59:26;99439.83;;;14.30;52.75
61805;BME280;47725;47.912;7.356;2023-11-21T20:03:26;99445.90;;;14.28;52.90
61805;BME280;47725;47.912;7.356;2023-11-21T20:07:26;99452.42;;;14.27;52.83
61805;BME280;47725;47.912;7.356;2023-11-21T20:11:26;99458.53;;;14.26;52.72
61805;BME280;47725;47.912;7.356;2023-11-21T20:15:26;99464.08;;;14.26;52.82
61805;BME280;47725;47.912;7.356;2023-11-21T20:19:26;99470.14;;;14.26;52.69
61805;BME280;47725;47.912;7.356;2023-11-21T20:23:26;99475.62;;;14.27;52.69
61805;BME280;47725;47.912;7.356;2023-11-21T20:27:26;99481.05;;;14.27;52.76
61805;BME280;47725;47.912;7.356;2023-11-21T20:31:26;99486.80;;;14.28;52.65
61805;BME280;47725;47.912;7.356;2023-11-21T20:35:26;99492.08;;;14.28;52.71
61805;BME280;47725;47.912;7.356;2023-11-21T20:39:26;99497.31;;;14.28;52.70
61805;BME280;47725;47.912;7.356;2023-11-21T20:43:26;99502.15;;;14.28;52.57
61805;BME280;47725;47.912;7.356;2023-11-21T20:47:26;99507.42;;;14.27;52.67
61805;BME280;47725;47.912;7.356;2023-11-21T20:51:26;99513.45;;;14.26;52.71
61805;BME280;47725;47.912;7.356;2023-11-21T20:55:26;99518.53;;;14.24;52.68
61805;BME280;47725;47.912;7.356;2023-11-21T20:59:26;99523.15;;;14.21;52.86
61805;BME280;47725;47.912;7.356;2023-11-21T21:03:26;99526.68;;;14.19;52.70
61805;BME280;47725;47.912;7.356;2023-11-21T21:07:26;99529.19;;;14.18;52.72
61805;BME280;47725;47.912;7.356;2023-11-21T21:11:26;99531.28;;;14.17;52.64
61805;BME280;47725;47.912;7.356;2023-11-21T21:15:26;99532.37;;;14.15;52.67
61805;BME280;47725;47.912;7.356;2023-11-21T21:19:27;99533.95;;;14.13;52.76
61805;BME280;47725;47.912;7.356;2023-11-21T21:23:26;99536.19;;;14.11;52.72